createdAt,value
2022-08-30T00:02:28.808Z,22.70
2022-08-30T00:04:57.822Z,22.60
2022-08-30T00:07:26.160Z,22.60
2022-08-30T00:09:55.777Z,22.50
2022-08-30T00:12:24.112Z,22.60
2022-08-30T00:14:52.445Z,22.60
2022-08-30T00:17:20.479Z,22.60
2022-08-30T00:19:48.767Z,22.50
2022-08-30T00:22:17.271Z,22.50
2022-08-30T00:24:45.678Z,22.50
2022-08-30T00:27:15.788Z,22.50
2022-08-30T00:29:44.120Z,22.50
2022-08-30T00:32:12.381Z,22.50
2022-08-30T00:34:40.595Z,22.40
2022-08-30T00:37:08.684Z,22.40
2022-08-30T00:39:36.918Z,22.40
2022-08-30T00:42:05.838Z,22.40
2022-08-30T00:44:35.465Z,22.40
2022-08-30T00:47:04.275Z,22.40
2022-08-30T00:49:35.900Z,22.30
2022-08-30T00:52:07.440Z,22.30
2022-08-30T00:54:38.509Z,22.30
2022-08-30T00:57:07.190Z,22.30
2022-08-30T00:59:36.968Z,22.20
2022-08-30T01:02:07.016Z,22.20
2022-08-30T01:04:37.260Z,22.10
2022-08-30T01:07:05.407Z,22.20
2022-08-30T01:09:33.701Z,22.20
2022-08-30T01:12:02.214Z,22.20
2022-08-30T01:14:33.217Z,22.20
2022-08-30T01:17:04.823Z,22.10
2022-08-30T01:19:42.088Z,22.10
2022-08-30T01:22:25.562Z,21.90
2022-08-30T01:24:58.648Z,22.10
2022-08-30T01:27:29.314Z,22.10
2022-08-30T01:29:59.930Z,22.00
2022-08-30T01:32:30.536Z,22.00
2022-08-30T01:34:59.529Z,22.00
2022-08-30T01:37:32.824Z,22.00
2022-08-30T01:40:02.764Z,22.00
2022-08-30T01:42:31.465Z,22.00
2022-08-30T01:44:59.791Z,21.90
2022-08-30T01:47:28.254Z,21.90
2022-08-30T01:49:56.378Z,21.90
2022-08-30T01:52:25.018Z,21.90
2022-08-30T01:54:54.010Z,21.90
2022-08-30T01:57:26.913Z,21.90
2022-08-30T01:59:55.873Z,21.90
2022-08-30T02:02:28.485Z,21.80
2022-08-30T02:04:58.576Z,21.80
2022-08-30T02:07:27.872Z,21.80
2022-08-30T02:09:56.980Z,21.80
2022-08-30T02:12:27.069Z,21.80
2022-08-30T02:14:55.787Z,21.80
2022-08-30T02:17:24.776Z,21.80
2022-08-30T02:19:53.590Z,21.70
2022-08-30T02:22:21.775Z,21.70
2022-08-30T02:24:49.890Z,21.70
2022-08-30T02:27:18.257Z,21.70
2022-08-30T02:29:48.019Z,21.60
2022-08-30T02:32:16.178Z,21.70
2022-08-30T02:34:45.596Z,21.70
2022-08-30T02:37:15.432Z,21.60
2022-08-30T02:39:43.986Z,21.60
2022-08-30T02:42:12.176Z,21.60
2022-08-30T02:44:40.757Z,21.60
2022-08-30T02:47:10.729Z,21.60
2022-08-30T02:49:39.201Z,21.60
2022-08-30T02:52:07.688Z,21.60
2022-08-30T02:54:36.078Z,21.50
2022-08-30T02:57:06.403Z,21.50
2022-08-30T02:59:37.868Z,21.50
2022-08-30T03:02:08.707Z,21.50
2022-08-30T03:04:37.237Z,21.50
2022-08-30T03:07:06.325Z,21.50
2022-08-30T03:09:34.917Z,21.50
2022-08-30T03:12:04.916Z,21.40
2022-08-30T03:14:36.283Z,21.40
2022-08-30T03:17:06.900Z,21.40
2022-08-30T03:19:46.270Z,21.40
2022-08-30T03:22:14.675Z,21.40
2022-08-30T03:24:43.312Z,21.40
2022-08-30T03:27:11.528Z,21.30
2022-08-30T03:29:40.354Z,21.30
2022-08-30T03:32:09.206Z,21.30
2022-08-30T03:34:37.637Z,21.30
2022-08-30T03:37:07.168Z,21.30
2022-08-30T03:39:35.461Z,21.30
2022-08-30T03:42:04.062Z,21.30
2022-08-30T03:44:33.193Z,21.30
2022-08-30T03:47:01.588Z,21.30
2022-08-30T03:49:29.752Z,21.20
2022-08-30T03:51:57.940Z,21.20
2022-08-30T03:54:27.871Z,21.20
2022-08-30T03:56:56.280Z,21.20
2022-08-30T03:59:24.847Z,21.20
2022-08-30T04:01:52.982Z,21.20
2022-08-30T04:04:21.497Z,21.20
2022-08-30T04:06:50.365Z,21.10
2022-08-30T04:09:19.546Z,21.10
2022-08-30T04:11:49.328Z,21.10
2022-08-30T04:14:17.558Z,21.10
2022-08-30T04:16:45.799Z,21.10
2022-08-30T04:19:13.911Z,21.10
2022-08-30T04:21:43.601Z,21.10
2022-08-30T04:24:12.180Z,21.10
2022-08-30T04:26:40.498Z,21.00
2022-08-30T04:29:11.697Z,21.00
2022-08-30T04:31:39.724Z,21.00
2022-08-30T04:34:07.767Z,21.00
2022-08-30T04:36:35.717Z,21.00
2022-08-30T04:39:03.976Z,21.00
2022-08-30T04:41:32.100Z,21.00
2022-08-30T04:44:01.039Z,20.90
2022-08-30T04:46:30.733Z,21.00
2022-08-30T04:48:58.798Z,21.00
2022-08-30T04:51:27.006Z,21.00
2022-08-30T04:53:55.068Z,21.00
2022-08-30T04:56:25.624Z,20.90
2022-08-30T04:58:55.643Z,20.90
2022-08-30T05:01:27.412Z,20.90
2022-08-30T05:03:59.228Z,20.90
2022-08-30T05:06:32.094Z,20.90
2022-08-30T05:09:01.819Z,21.00
2022-08-30T05:11:30.593Z,21.00
2022-08-30T05:13:58.561Z,21.00
2022-08-30T05:16:27.176Z,21.00
2022-08-30T05:18:58.095Z,21.00
2022-08-30T05:21:29.039Z,21.00
2022-08-30T05:24:00.579Z,21.00
2022-08-30T05:26:32.334Z,21.00
2022-08-30T05:29:01.384Z,21.00
2022-08-30T05:31:33.374Z,21.00
2022-08-30T05:34:04.091Z,21.00
2022-08-30T05:36:35.957Z,20.90
2022-08-30T05:39:05.644Z,21.00
2022-08-30T05:41:34.493Z,21.00
2022-08-30T05:44:08.228Z,21.00
2022-08-30T05:46:37.650Z,21.10
2022-08-30T05:49:09.678Z,21.10
2022-08-30T05:51:43.477Z,21.10
2022-08-30T05:54:13.373Z,21.10
2022-08-30T05:56:44.387Z,21.10
2022-08-30T05:59:14.931Z,21.10
2022-08-30T06:01:46.990Z,21.10
2022-08-30T06:04:17.112Z,21.20
2022-08-30T06:06:45.867Z,21.20
2022-08-30T06:09:15.971Z,21.20
2022-08-30T06:11:44.791Z,21.30
2022-08-30T06:14:13.504Z,21.30
2022-08-30T06:16:44.082Z,21.30
2022-08-30T06:19:12.877Z,21.30
2022-08-30T06:21:44.534Z,21.30
2022-08-30T06:24:13.295Z,21.40
2022-08-30T06:26:49.114Z,21.40
2022-08-30T06:29:22.437Z,21.40
2022-08-30T06:31:51.521Z,21.40
2022-08-30T06:34:20.499Z,21.50
2022-08-30T06:36:49.902Z,21.50
2022-08-30T06:39:17.909Z,21.50
2022-08-30T06:41:45.785Z,21.60
2022-08-30T06:44:27.982Z,21.60
2022-08-30T06:46:58.250Z,21.60
2022-08-30T06:49:26.280Z,21.70
2022-08-30T06:51:55.543Z,21.70
2022-08-30T06:54:23.534Z,21.80
2022-08-30T06:56:59.062Z,21.80
2022-08-30T06:59:28.245Z,21.80
2022-08-30T07:01:57.449Z,21.90
2022-08-30T07:04:26.474Z,21.90
2022-08-30T07:06:56.085Z,22.00
2022-08-30T07:09:24.406Z,22.00
2022-08-30T07:11:54.184Z,22.00
2022-08-30T07:14:23.106Z,22.10
2022-08-30T07:16:52.155Z,22.10
2022-08-30T07:19:20.982Z,22.20
2022-08-30T07:21:50.319Z,22.20
2022-08-30T07:24:21.206Z,22.30
2022-08-30T07:26:51.950Z,22.30
2022-08-30T07:29:21.194Z,22.40
2022-08-30T07:31:49.517Z,22.40
2022-08-30T07:34:19.286Z,22.50
2022-08-30T07:36:48.477Z,22.60
2022-08-30T07:39:16.432Z,22.70
2022-08-30T07:41:45.852Z,22.70
2022-08-30T07:44:13.841Z,22.90
2022-08-30T07:46:42.346Z,23.00
2022-08-30T07:49:13.003Z,23.20
2022-08-30T07:51:41.904Z,23.30
2022-08-30T07:54:10.414Z,23.50
2022-08-30T07:56:38.358Z,23.70
2022-08-30T07:59:07.736Z,23.90
2022-08-30T08:01:35.712Z,24.10
2022-08-30T08:04:04.386Z,24.30
2022-08-30T08:06:35.107Z,24.60
2022-08-30T08:09:03.327Z,24.80
2022-08-30T08:11:33.801Z,25.00
2022-08-30T08:14:03.041Z,25.20
2022-08-30T08:16:35.654Z,25.40
2022-08-30T08:19:08.681Z,25.70
2022-08-30T08:21:38.279Z,25.90
2022-08-30T08:24:07.213Z,26.10
2022-08-30T08:26:37.530Z,26.30
2022-08-30T08:29:07.988Z,26.50
2022-08-30T08:31:38.193Z,26.70
2022-08-30T08:34:06.793Z,26.90
2022-08-30T08:36:36.397Z,27.10
2022-08-30T08:39:07.338Z,27.20
2022-08-30T08:41:52.714Z,27.30
2022-08-30T08:44:39.361Z,27.40
2022-08-30T08:47:16.348Z,27.60
2022-08-30T08:49:48.276Z,27.70
2022-08-30T08:52:43.197Z,27.80
2022-08-30T08:55:15.747Z,27.90
2022-08-30T08:57:44.473Z,28.00
2022-08-30T09:00:15.357Z,28.10
2022-08-30T09:02:50.672Z,28.10
2022-08-30T09:05:26.261Z,28.10
2022-08-30T09:08:06.608Z,28.10
2022-08-30T09:10:50.355Z,28.10
2022-08-30T09:13:22.830Z,28.00
2022-08-30T09:15:54.753Z,28.00
2022-08-30T09:18:45.743Z,27.90
2022-08-30T09:21:15.888Z,27.90
2022-08-30T09:23:51.606Z,27.80
2022-08-30T09:26:32.181Z,27.70
2022-08-30T09:29:01.033Z,27.70
2022-08-30T09:31:32.023Z,27.60
2022-08-30T09:34:06.789Z,27.50
2022-08-30T09:36:42.693Z,27.50
2022-08-30T09:39:19.035Z,27.40
2022-08-30T09:41:50.620Z,27.40
2022-08-30T09:44:21.990Z,27.30
2022-08-30T09:46:53.578Z,27.30
2022-08-30T09:49:35.461Z,27.20
2022-08-30T09:52:28.912Z,27.20
2022-08-30T09:55:19.083Z,27.10
2022-08-30T09:58:00.000Z,27.00
2022-08-30T10:00:35.288Z,27.00
2022-08-30T10:03:35.322Z,27.00
2022-08-30T10:06:19.510Z,26.90
2022-08-30T10:09:03.191Z,26.90
2022-08-30T10:11:45.562Z,26.80
2022-08-30T10:14:46.975Z,26.80
2022-08-30T10:17:28.253Z,26.70
2022-08-30T10:20:18.846Z,26.70
2022-08-30T10:22:54.091Z,26.60
2022-08-30T10:25:34.232Z,26.60
2022-08-30T10:28:10.855Z,26.60
2022-08-30T10:30:46.489Z,26.60
2022-08-30T10:33:21.814Z,26.60
2022-08-30T10:35:59.208Z,26.50
2022-08-30T10:38:35.349Z,26.50
2022-08-30T10:41:18.956Z,26.50
2022-08-30T10:43:55.987Z,26.50
2022-08-30T10:46:34.503Z,26.50
2022-08-30T10:49:08.138Z,26.40
2022-08-30T10:51:45.318Z,26.40
2022-08-30T10:54:22.955Z,26.40
2022-08-30T10:56:53.744Z,26.40
2022-08-30T10:59:22.420Z,26.40
2022-08-30T11:02:20.041Z,26.30
2022-08-30T11:05:40.740Z,26.30
2022-08-30T11:08:28.456Z,26.30
2022-08-30T11:11:14.483Z,26.30
2022-08-30T11:13:44.996Z,26.30
2022-08-30T11:16:19.046Z,26.30
2022-08-30T11:18:52.621Z,26.20
2022-08-30T11:21:32.406Z,26.30
2022-08-30T11:24:10.765Z,26.30
2022-08-30T11:27:02.252Z,26.20
2022-08-30T11:29:39.861Z,26.30
2022-08-30T11:32:58.908Z,26.20
2022-08-30T11:35:45.973Z,26.20
2022-08-30T11:38:42.029Z,26.20
2022-08-30T11:41:14.970Z,26.30
2022-08-30T11:43:56.030Z,26.20
2022-08-30T11:46:40.085Z,26.20
2022-08-30T11:49:46.291Z,26.20
2022-08-30T11:52:41.398Z,26.20
2022-08-30T11:55:39.813Z,26.20
2022-08-30T11:58:28.355Z,26.20
2022-08-30T12:01:42.201Z,26.20
2022-08-30T12:04:15.505Z,26.20
2022-08-30T12:06:52.528Z,26.30
2022-08-30T12:10:03.274Z,26.20
2022-08-30T12:12:56.865Z,26.20
2022-08-30T12:15:57.000Z,26.30
2022-08-30T12:18:44.526Z,26.30
2022-08-30T12:21:33.397Z,26.30
2022-08-30T12:24:21.933Z,26.30
2022-08-30T12:26:52.573Z,26.40
2022-08-30T12:29:24.505Z,26.30
2022-08-30T12:31:58.578Z,26.40
2022-08-30T12:34:31.825Z,26.40
2022-08-30T12:37:04.487Z,26.40
2022-08-30T12:39:35.796Z,26.40
2022-08-30T12:42:19.693Z,26.40
2022-08-30T12:44:50.295Z,26.40
2022-08-30T12:47:25.574Z,26.40
2022-08-30T12:49:55.167Z,26.40
2022-08-30T12:52:34.704Z,26.40
2022-08-30T12:55:17.734Z,26.40
2022-08-30T12:58:01.057Z,26.40
2022-08-30T13:00:40.647Z,26.50
2022-08-30T13:03:35.099Z,26.40
2022-08-30T13:06:04.079Z,26.50
2022-08-30T13:08:36.878Z,26.50
2022-08-30T13:11:10.324Z,26.50
2022-08-30T13:13:44.304Z,26.50
2022-08-30T13:16:37.055Z,26.50
2022-08-30T13:19:32.861Z,26.50
2022-08-30T13:22:03.208Z,26.50
2022-08-30T13:24:31.345Z,26.50
2022-08-30T13:27:06.513Z,26.50
2022-08-30T13:29:34.622Z,26.60
2022-08-30T13:32:02.708Z,26.60
2022-08-30T13:34:35.201Z,26.60
2022-08-30T13:37:05.090Z,26.50
2022-08-30T13:39:34.130Z,26.50
2022-08-30T13:44:54.007Z,26.50
2022-08-30T13:47:38.135Z,26.50
2022-08-30T13:50:09.803Z,26.50
2022-08-30T13:52:38.066Z,26.50
2022-08-30T13:55:07.988Z,26.50
2022-08-30T14:00:26.260Z,26.50
2022-08-30T14:02:57.486Z,26.50
2022-08-30T14:05:50.597Z,26.50
2022-08-30T14:11:16.099Z,26.50
2022-08-30T14:16:39.416Z,26.50
2022-08-30T14:19:08.455Z,26.60
2022-08-30T14:21:37.774Z,26.60
2022-08-30T14:24:07.298Z,26.60
2022-08-30T14:26:40.392Z,26.60
2022-08-30T14:29:12.043Z,26.60
2022-08-30T14:31:41.737Z,26.60
2022-08-30T14:34:12.263Z,26.60
2022-08-30T14:36:45.328Z,26.40
2022-08-30T14:39:18.701Z,26.50
2022-08-30T14:41:50.057Z,26.50
2022-08-30T14:44:21.868Z,26.50
2022-08-30T14:46:51.091Z,26.60
2022-08-30T14:49:20.416Z,26.60
2022-08-30T14:51:50.172Z,26.60
2022-08-30T14:54:23.303Z,26.50
2022-08-30T14:56:54.100Z,26.50
2022-08-30T14:59:22.582Z,26.40
2022-08-30T15:01:50.705Z,26.50
2022-08-30T15:04:21.717Z,26.50
2022-08-30T15:06:52.462Z,26.40
2022-08-30T15:09:24.631Z,26.50
2022-08-30T15:11:55.135Z,26.50
2022-08-30T15:14:27.297Z,26.50
2022-08-30T15:16:58.234Z,26.50
2022-08-30T15:19:27.705Z,26.40
2022-08-30T15:22:01.887Z,26.50
2022-08-30T15:24:31.011Z,26.50
2022-08-30T15:27:00.946Z,26.50
2022-08-30T15:29:29.898Z,26.50
2022-08-30T15:32:01.388Z,26.50
2022-08-30T15:34:30.710Z,26.50
2022-08-30T15:37:00.107Z,26.50
2022-08-30T15:39:29.235Z,26.50
2022-08-30T15:42:01.208Z,26.50
2022-08-30T15:44:30.790Z,26.50
2022-08-30T15:47:00.079Z,26.40
2022-08-30T15:49:28.333Z,26.50
2022-08-30T15:52:02.972Z,26.40
2022-08-30T15:54:31.952Z,26.50
2022-08-30T15:57:00.272Z,26.50
2022-08-30T15:59:31.908Z,26.40
2022-08-30T16:02:01.042Z,26.40
2022-08-30T16:04:29.819Z,26.40
2022-08-30T16:06:58.114Z,26.40
2022-08-30T16:09:30.100Z,26.40
2022-08-30T16:12:01.133Z,26.40
2022-08-30T16:14:29.305Z,26.40
2022-08-30T16:16:58.423Z,26.40
2022-08-30T16:19:26.710Z,26.40
2022-08-30T16:21:55.047Z,26.40
2022-08-30T16:24:23.353Z,26.30
2022-08-30T16:26:52.854Z,26.40
2022-08-30T16:29:21.683Z,26.40
2022-08-30T16:31:50.867Z,26.40
2022-08-30T16:34:22.534Z,26.30
2022-08-30T16:36:50.773Z,26.30
2022-08-30T16:39:19.234Z,26.20
2022-08-30T16:41:48.789Z,26.30
2022-08-30T16:44:18.735Z,26.30
2022-08-30T16:46:53.087Z,26.30
2022-08-30T16:49:23.375Z,26.30
2022-08-30T16:51:54.158Z,26.30
2022-08-30T16:54:22.965Z,26.30
2022-08-30T16:56:51.077Z,26.30
2022-08-30T16:59:20.562Z,26.30
2022-08-30T17:01:49.484Z,26.30
2022-08-30T17:04:19.628Z,26.30
2022-08-30T17:06:49.611Z,26.30
2022-08-30T17:09:19.593Z,26.20
2022-08-30T17:11:52.766Z,26.20
2022-08-30T17:14:28.117Z,26.20
2022-08-30T17:16:58.246Z,26.20
2022-08-30T17:19:28.894Z,26.20
2022-08-30T17:21:58.477Z,26.10
2022-08-30T17:24:27.857Z,26.20
2022-08-30T17:26:56.621Z,26.20
2022-08-30T17:29:28.576Z,26.20
2022-08-30T17:31:56.965Z,26.20
2022-08-30T17:34:26.778Z,26.20
2022-08-30T17:36:58.171Z,26.20
2022-08-30T17:39:28.515Z,26.10
2022-08-30T17:41:56.922Z,26.20
2022-08-30T17:44:28.924Z,26.10
2022-08-30T17:46:58.621Z,26.10
2022-08-30T17:49:29.476Z,26.10
2022-08-30T17:51:58.776Z,26.10
2022-08-30T17:54:30.149Z,26.00
2022-08-30T17:57:00.064Z,25.90
2022-08-30T17:59:32.537Z,26.10
2022-08-30T18:02:01.538Z,26.10
2022-08-30T18:04:30.685Z,26.10
2022-08-30T18:06:59.969Z,26.10
2022-08-30T18:09:33.173Z,26.00
2022-08-30T18:12:02.288Z,26.00
2022-08-30T18:14:31.726Z,26.00
2022-08-30T18:17:00.923Z,26.00
2022-08-30T18:19:31.867Z,26.00
2022-08-30T18:22:03.365Z,26.00
2022-08-30T18:24:32.262Z,25.90
2022-08-30T18:27:01.975Z,25.90
2022-08-30T18:29:33.180Z,25.90
2022-08-30T18:32:02.665Z,25.90
2022-08-30T18:34:32.079Z,25.80
2022-08-30T18:37:01.185Z,25.80
2022-08-30T18:39:34.138Z,25.80
2022-08-30T18:42:03.988Z,25.80
2022-08-30T18:44:34.137Z,25.80
2022-08-30T18:47:05.598Z,25.70
2022-08-30T18:49:36.065Z,25.70
2022-08-30T18:52:08.146Z,25.70
2022-08-30T18:54:41.194Z,25.70
2022-08-30T18:57:10.087Z,25.70
2022-08-30T18:59:42.053Z,25.60
2022-08-30T19:02:14.598Z,25.50
2022-08-30T19:04:45.188Z,25.60
2022-08-30T19:07:16.522Z,25.60
2022-08-30T19:09:45.240Z,25.50
2022-08-30T19:12:13.485Z,25.50
2022-08-30T19:14:43.231Z,25.50
2022-08-30T19:17:11.661Z,25.50
2022-08-30T19:19:48.803Z,25.50
2022-08-30T19:22:20.041Z,25.40
2022-08-30T19:24:49.729Z,25.40
2022-08-30T19:27:21.562Z,25.40
2022-08-30T19:30:10.885Z,25.30
2022-08-30T19:32:39.173Z,25.30
2022-08-30T19:35:09.781Z,25.30
2022-08-30T19:37:38.911Z,25.30
2022-08-30T19:40:11.806Z,25.20
2022-08-30T19:42:46.599Z,25.20
2022-08-30T19:45:21.594Z,25.20
2022-08-30T19:47:51.228Z,25.10
2022-08-30T19:50:20.292Z,25.10
2022-08-30T19:52:53.755Z,25.10
2022-08-30T19:55:28.451Z,25.10
2022-08-30T19:57:58.198Z,25.10
2022-08-30T20:00:30.735Z,25.00
2022-08-30T20:03:01.375Z,25.00
2022-08-30T20:05:30.574Z,25.00
2022-08-30T20:08:00.182Z,24.90
2022-08-30T20:10:28.444Z,24.90
2022-08-30T20:12:56.505Z,24.90
2022-08-30T20:15:26.290Z,24.90
2022-08-30T20:18:06.007Z,24.90
2022-08-30T20:20:49.747Z,24.80
2022-08-30T20:23:19.703Z,24.80
2022-08-30T20:25:50.788Z,24.80
2022-08-30T20:28:20.546Z,24.70
2022-08-30T20:30:48.654Z,24.70
2022-08-30T20:33:19.529Z,24.70
2022-08-30T20:35:49.658Z,24.70
2022-08-30T20:38:21.804Z,24.60
2022-08-30T20:40:52.564Z,24.60
2022-08-30T20:43:22.991Z,24.60
2022-08-30T20:45:51.648Z,24.60
2022-08-30T20:48:20.993Z,24.50
2022-08-30T20:50:49.109Z,24.50
2022-08-30T20:53:17.664Z,24.50
2022-08-30T20:55:48.350Z,24.50
2022-08-30T20:58:18.162Z,24.50
2022-08-30T21:00:51.396Z,24.40
2022-08-30T21:03:27.673Z,24.40
2022-08-30T21:05:57.029Z,24.30
2022-08-30T21:08:25.360Z,24.30
2022-08-30T21:10:54.501Z,24.30
2022-08-30T21:13:22.739Z,24.30
2022-08-30T21:15:54.681Z,24.30
2022-08-30T21:18:28.407Z,24.20
2022-08-30T21:20:57.067Z,24.20
2022-08-30T21:23:25.415Z,24.20
2022-08-30T21:25:53.353Z,24.20
2022-08-30T21:28:22.105Z,24.10
2022-08-30T21:30:50.044Z,24.10
2022-08-30T21:33:17.965Z,24.10
2022-08-30T21:36:04.683Z,24.10
2022-08-30T21:38:32.553Z,24.00
2022-08-30T21:41:00.493Z,24.00
2022-08-30T21:43:28.409Z,24.00
2022-08-30T21:45:56.331Z,24.00
2022-08-30T21:48:24.269Z,24.00
2022-08-30T21:50:55.195Z,23.90
2022-08-30T21:53:23.162Z,23.90
2022-08-30T21:55:51.094Z,23.90
2022-08-30T21:58:19.607Z,23.90
2022-08-30T22:00:47.920Z,23.90
2022-08-30T22:03:16.018Z,23.80
2022-08-30T22:05:51.138Z,23.80
2022-08-30T22:08:20.358Z,23.80
2022-08-30T22:10:48.267Z,23.80
2022-08-30T22:13:16.235Z,23.70
2022-08-30T22:15:45.529Z,23.70
2022-08-30T22:18:13.393Z,23.70
2022-08-30T22:20:42.910Z,23.70
2022-08-30T22:23:12.409Z,23.70
2022-08-30T22:25:48.117Z,23.60
2022-08-30T22:28:15.986Z,23.60
2022-08-30T22:30:43.847Z,23.60
2022-08-30T22:33:11.887Z,23.60
2022-08-30T22:35:40.405Z,23.50
2022-08-30T22:38:08.361Z,23.50
2022-08-30T22:40:36.345Z,23.50
2022-08-30T22:43:05.627Z,23.50
2022-08-30T22:45:33.591Z,23.50
2022-08-30T22:48:01.531Z,23.50
2022-08-30T22:50:29.461Z,23.40
2022-08-30T22:52:57.449Z,23.40
2022-08-30T22:55:25.627Z,23.40
2022-08-30T22:57:53.847Z,23.40
2022-08-30T23:00:24.136Z,23.40
2022-08-30T23:02:54.336Z,23.30
2022-08-30T23:05:24.551Z,23.30
2022-08-30T23:07:52.571Z,23.30
2022-08-30T23:10:21.918Z,23.30
2022-08-30T23:12:49.816Z,23.30
2022-08-30T23:15:17.988Z,23.30
2022-08-30T23:17:47.346Z,23.30
2022-08-30T23:20:16.125Z,23.20
2022-08-30T23:22:44.243Z,23.20
2022-08-30T23:25:31.967Z,23.20
2022-08-30T23:28:20.733Z,23.20
2022-08-30T23:31:06.550Z,23.20
2022-08-30T23:33:53.587Z,23.10
2022-08-30T23:36:39.593Z,23.10
2022-08-30T23:39:25.170Z,23.10
2022-08-30T23:42:10.840Z,23.10
2022-08-30T23:44:56.476Z,23.00
2022-08-30T23:47:41.724Z,23.00
2022-08-30T23:50:28.470Z,23.00
2022-08-30T23:53:13.953Z,23.00
2022-08-30T23:55:59.445Z,22.90
2022-08-30T23:58:44.981Z,22.90
